Time;durP1;ratioP1;P1;durP2;ratioP2;P2;SDS_P1;SDS_P2;PMS_P1;PMS_P2;Temp;Humidity;BMP_temperature;BMP_pressure;BME280_temperature;BME280_humidity;BME280_pressure;Samples;Min_cycle;Max_cycle;Signal;HPM_P1;HPM_P2
2023/03/27 00:00:32;;;;;;;1.37;0.23;;;;;;;5.80;100.00;96928.87;21949377;27;20021;-52
2023/03/27 00:10:36;;;;;;;1.10;0.33;;;;;;;5.87;100.00;96931.34;21968540;27;20037;-55
2023/03/27 00:20:39;;;;;;;1.50;0.40;;;;;;;5.85;100.00;96933.47;21968502;27;20029;-56
2023/03/27 00:30:42;;;;;;;1.33;0.40;;;;;;;5.92;100.00;96958.19;21968323;27;20037;-52
2023/03/27 00:40:46;;;;;;;1.27;0.30;;;;;;;5.93;100.00;96978.59;21968500;27;20044;-53
2023/03/27 00:50:50;;;;;;;0.50;0.33;;;;;;;5.81;100.00;96986.84;21968267;27;20026;-55
2023/03/27 01:00:54;;;;;;;1.67;0.60;;;;;;;5.87;100.00;97003.78;21967783;27;20029;-55
2023/03/27 01:11:18;;;;;;;1.17;0.57;;;;;;;5.87;100.00;97018.00;21968689;27;20043;-56
2023/03/27 01:21:44;;;;;;;1.17;0.40;;;;;;;5.88;100.00;97025.00;21972894;27;20029;-56
2023/03/27 01:32:28;;;;;;;0.32;0.15;;;;;;;5.86;100.00;97031.66;21946274;27;20488;-53
2023/03/27 01:42:46;;;;;;;0.90;0.30;;;;;;;5.88;100.00;97043.78;21972886;27;20063;-56
2023/03/27 01:53:17;;;;;;;0.50;0.30;;;;;;;5.84;100.00;97063.28;21972147;27;20062;-56
2023/03/27 02:03:26;;;;;;;2.20;0.40;;;;;;;5.92;100.00;97092.34;21966771;27;20055;-56
2023/03/27 02:13:37;;;;;;;1.83;0.30;;;;;;;5.85;100.00;97106.00;21971966;27;20045;-56
2023/03/27 02:23:41;;;;;;;2.30;0.40;;;;;;;5.55;100.00;97107.28;21971483;27;20342;-56
2023/03/27 02:33:59;;;;;;;0.40;0.30;;;;;;;5.51;100.00;97126.78;21970698;27;20108;-56
2023/03/27 02:44:39;;;;;;;0.40;0.23;;;;;;;5.55;100.00;97144.00;21970989;27;20044;-54
2023/03/27 02:54:54;;;;;;;1.73;0.73;;;;;;;5.53;100.00;97148.81;21970680;27;20057;-56
2023/03/27 03:05:05;;;;;;;3.53;0.93;;;;;;;5.51;100.00;97167.00;21971177;27;20048;-56
2023/03/27 03:15:09;;;;;;;0.90;0.70;;;;;;;5.56;100.00;97177.81;21970087;27;20364;-55
2023/03/27 03:25:11;;;;;;;1.17;0.83;;;;;;;5.49;100.00;97201.31;21949634;27;20341;-56
2023/03/27 03:35:14;;;;;;;1.73;1.37;;;;;;;5.50;100.00;97214.47;21969533;27;20398;-55
2023/03/27 03:45:18;;;;;;;2.60;1.40;;;;;;;5.57;100.00;97241.91;21950100;27;20047;-56
2023/03/27 03:55:20;;;;;;;1.43;1.20;;;;;;;5.60;100.00;97262.06;21969484;27;20033;-56
2023/03/27 04:05:23;;;;;;;2.33;1.40;;;;;;;5.59;100.00;97287.25;21949374;27;20029;-56
2023/03/27 04:15:26;;;;;;;1.57;1.43;;;;;;;5.63;100.00;97301.81;21968988;27;20021;-56
2023/03/27 04:25:29;;;;;;;2.43;1.80;;;;;;;5.57;100.00;97319.69;21968634;27;20151;-55
2023/03/27 04:35:32;;;;;;;3.13;2.03;;;;;;;5.62;100.00;97339.59;21968944;27;20069;-53
2023/03/27 04:45:34;;;;;;;3.23;2.30;;;;;;;5.65;100.00;97363.28;21968595;27;20035;-53
2023/03/27 04:55:38;;;;;;;3.30;2.03;;;;;;;5.68;100.00;97381.56;21973280;27;20025;-56
2023/03/27 05:05:40;;;;;;;4.13;1.80;;;;;;;5.60;100.00;97406.91;21973583;27;20459;-55
2023/03/27 05:15:43;;;;;;;2.97;1.50;;;;;;;5.56;100.00;97444.16;21973350;27;20039;-53
2023/03/27 05:25:46;;;;;;;2.33;1.47;;;;;;;5.42;100.00;97459.72;21973222;27;20025;-55
2023/03/27 05:36:04;;;;;;;2.27;1.00;;;;;;;5.33;100.00;97488.00;21972849;27;20025;-54
2023/03/27 05:46:07;;;;;;;1.85;1.25;;;;;;;5.10;100.00;97510.34;21972775;27;20040;-56
2023/03/27 05:56:10;;;;;;;3.47;1.37;;;;;;;5.04;100.00;97525.50;21972382;27;20037;-55
2023/03/27 06:06:13;;;;;;;2.33;1.20;;;;;;;4.94;100.00;97570.03;21971666;27;20417;-56
2023/03/27 06:16:19;;;;;;;4.73;1.40;;;;;;;4.84;100.00;97581.34;21952507;27;20033;-55
2023/03/27 06:26:22;;;;;;;4.97;1.07;;;;;;;4.72;100.00;97606.28;21971299;27;20300;-53
2023/03/27 06:36:26;;;;;;;4.93;1.33;;;;;;;4.72;100.00;97627.69;21971208;27;20017;-54
2023/03/27 06:46:28;;;;;;;3.13;1.00;;;;;;;4.61;100.00;97660.66;21971039;27;20095;-54
2023/03/27 06:56:47;;;;;;;3.40;1.50;;;;;;;4.58;100.00;97683.34;21970621;27;20428;-53
2023/03/27 07:06:49;;;;;;;3.23;1.30;;;;;;;4.54;100.00;97687.53;21970241;27;20052;-55
2023/03/27 07:16:53;;;;;;;6.93;1.43;;;;;;;4.70;100.00;97699.44;21969457;27;20073;-53
2023/03/27 07:26:56;;;;;;;5.93;1.80;;;;;;;4.70;100.00;97702.13;21969475;27;20077;-54
2023/03/27 07:36:59;;;;;;;4.63;1.30;;;;;;;4.81;95.33;97748.72;21931991;27;20049;-50
2023/03/27 07:47:02;;;;;;;5.70;1.20;;;;;;;4.43;99.37;97760.63;21968765;27;20041;-50
2023/03/27 07:57:05;;;;;;;4.73;1.43;;;;;;;4.40;99.31;97794.03;21968901;27;20402;-50
2023/03/27 08:07:08;;;;;;;6.23;1.47;;;;;;;4.39;100.00;97823.72;21968688;27;20051;-53
2023/03/27 08:17:11;;;;;;;4.47;1.50;;;;;;;4.48;98.14;97850.97;21968301;27;20041;-53
2023/03/27 08:27:18;;;;;;;4.60;1.20;;;;;;;4.71;92.95;97869.84;21952413;27;20371;-52
2023/03/27 08:37:21;;;;;;;7.07;1.93;;;;;;;4.74;100.00;97877.41;21954872;27;20040;-52
2023/03/27 08:47:42;;;;;;;3.47;1.10;;;;;;;4.99;91.25;97880.97;21974866;27;20025;-54
2023/03/27 08:57:49;;;;;;;4.20;2.33;;;;;;;5.05;88.56;97901.50;21974468;27;20025;-54
2023/03/27 09:08:09;;;;;;;6.63;2.17;;;;;;;5.23;81.58;97924.75;21953808;27;20021;-52
2023/03/27 09:18:26;;;;;;;3.87;1.90;;;;;;;4.98;78.33;97919.56;21973633;27;20025;-53
2023/03/27 09:28:50;;;;;;;6.67;1.50;;;;;;;4.91;82.32;97943.75;21973037;27;20329;-53
2023/03/27 09:38:57;;;;;;;6.57;2.13;;;;;;;5.08;84.46;97960.84;21972634;27;20021;-53
2023/03/27 09:49:08;;;;;;;6.40;2.50;;;;;;;5.15;81.83;97978.69;21972866;27;20051;-51
2023/03/27 09:59:22;;;;;;;8.67;2.40;;;;;;;5.48;88.27;97997.00;21972388;27;20033;-54
2023/03/27 10:09:33;;;;;;;7.13;2.00;;;;;;;5.94;80.61;98016.09;21972386;27;20439;-52
2023/03/27 10:19:40;;;;;;;5.23;2.17;;;;;;;6.23;73.80;98024.34;21952458;27;20036;-55
2023/03/27 10:29:43;;;;;;;4.97;1.30;;;;;;;6.70;76.59;98044.97;21971365;27;20037;-54
2023/03/27 10:39:46;;;;;;;3.77;1.30;;;;;;;6.69;62.58;98054.94;21970994;27;20033;-54
2023/03/27 10:50:03;;;;;;;4.43;2.00;;;;;;;6.71;61.73;98066.25;21970446;27;20087;-53
2023/03/27 11:00:17;;;;;;;3.37;1.40;;;;;;;7.05;63.20;98079.87;21950600;27;20032;-53
2023/03/27 11:10:32;;;;;;;2.70;1.00;;;;;;;7.44;57.97;98087.37;21970319;27;20040;-55
2023/03/27 11:20:58;;;;;;;3.15;1.10;;;;;;;6.84;58.92;98089.38;21969700;27;20029;-55
2023/03/27 11:34:13;;;;;;;4.00;1.50;;;;;;;7.22;54.43;98116.78;18473770;32;20086;-54
2023/03/27 11:44:30;;;;;;;4.20;1.10;;;;;;;7.22;54.43;98116.78;18411294;32;20120;-55
2023/03/27 11:55:09;;;;;;;1.80;0.80;;;;;;;7.54;52.91;98114.50;18411284;32;20084;-56
2023/03/27 12:05:39;;;;;;;3.53;0.90;;;;;;;7.40;46.93;98129.25;18408164;32;20124;-57
2023/03/27 12:16:04;;;;;;;2.10;0.73;;;;;;;8.52;45.68;98136.97;18396385;32;20081;-54
2023/03/27 12:26:44;;;;;;;2.28;0.60;;;;;;;8.93;47.39;98153.78;18409238;32;20115;-55
2023/03/27 12:36:48;;;;;;;1.80;0.70;;;;;;;9.61;41.78;98161.72;18389185;32;20485;-54
2023/03/27 12:47:21;;;;;;;2.63;0.70;;;;;;;10.46;39.28;98183.69;18365673;32;20058;-55
2023/03/27 12:57:24;;;;;;;1.83;0.60;;;;;;;10.34;37.25;98188.44;18365530;32;20061;-56
2023/03/27 13:07:34;;;;;;;1.30;0.50;;;;;;;9.59;41.61;98191.66;18350916;32;20413;-52
2023/03/27 13:17:54;;;;;;;2.53;0.60;;;;;;;9.93;39.75;98190.69;18364770;32;20123;-52
2023/03/27 13:28:00;;;;;;;3.33;0.73;;;;;;;10.29;39.26;98193.78;18363574;32;20450;-55
2023/03/27 13:38:03;;;;;;;5.30;0.90;;;;;;;10.04;43.20;98205.94;18363243;32;20054;-54
2023/03/27 13:48:24;;;;;;;4.70;0.90;;;;;;;10.56;43.14;98214.62;18361585;32;20099;-55
2023/03/27 13:58:48;;;;;;;3.47;0.93;;;;;;;10.07;43.53;98216.28;18361909;32;20104;-55
2023/03/27 14:09:12;;;;;;;3.33;0.67;;;;;;;10.29;45.63;98227.03;18347934;32;20050;-54
2023/03/27 14:19:36;;;;;;;2.63;0.60;;;;;;;10.30;39.86;98233.25;18347755;32;20065;-56
2023/03/27 14:29:39;;;;;;;1.40;0.70;;;;;;;9.65;44.68;98238.44;18360391;32;20088;-53
2023/03/27 14:39:53;;;;;;;3.63;0.90;;;;;;;9.40;47.08;98228.94;18360556;32;20460;-53
2023/03/27 14:50:00;;;;;;;2.30;0.87;;;;;;;10.49;46.95;98231.84;18360239;32;20077;-55
2023/03/27 15:00:05;;;;;;;4.97;1.20;;;;;;;10.73;40.94;98244.25;18359438;32;20374;-54
2023/03/27 15:10:11;;;;;;;3.03;0.60;;;;;;;10.16;42.18;98232.84;18344746;32;20073;-52
2023/03/27 15:20:16;;;;;;;2.17;0.50;;;;;;;10.15;42.10;98225.78;18358432;32;20146;-56
2023/03/27 15:30:46;;;;;;;3.00;0.60;;;;;;;10.47;40.11;98215.09;18343748;32;20061;-56
2023/03/27 15:41:12;;;;;;;1.33;0.40;;;;;;;10.96;40.79;98224.16;18357700;32;20406;-54
2023/03/27 15:51:18;;;;;;;2.97;0.70;;;;;;;11.02;41.49;98228.53;18357202;32;20066;-54
2023/03/27 16:01:26;;;;;;;9.43;4.17;;;;;;;10.83;46.79;98237.03;18356901;32;20053;-55
2023/03/27 16:11:42;;;;;;;2.33;0.60;;;;;;;9.83;41.34;98246.22;18357180;32;20076;-53
2023/03/27 16:21:55;;;;;;;0.60;0.37;;;;;;;9.58;45.83;98251.28;18367485;32;20357;-55
2023/03/27 16:31:58;;;;;;;2.63;0.77;;;;;;;9.45;50.01;98250.56;18366108;32;20088;-53
2023/03/27 16:42:01;;;;;;;72.87;26.20;;;;;;;8.90;48.89;98268.34;18366328;32;20105;-56
2023/03/27 16:52:04;;;;;;;3.67;1.70;;;;;;;8.35;50.28;98279.75;18365206;32;20415;-55
2023/03/27 17:02:09;;;;;;;2.70;0.60;;;;;;;7.89;51.74;98303.88;18351417;32;20065;-54
2023/03/27 17:12:12;;;;;;;3.13;0.90;;;;;;;7.46;55.45;98306.72;18364247;32;20370;-56
2023/03/27 17:22:15;;;;;;;1.07;0.60;;;;;;;7.25;59.13;98323.44;18350110;32;20066;-55
2023/03/27 17:32:18;;;;;;;1.83;0.53;;;;;;;6.66;68.38;98329.50;18363494;32;20046;-53
2023/03/27 17:42:21;;;;;;;3.00;0.90;;;;;;;6.44;76.38;98339.91;18349356;32;20068;-54
2023/03/27 17:52:26;;;;;;;3.43;0.70;;;;;;;6.18;77.64;98352.63;18362494;32;20347;-52
2023/03/27 18:02:28;;;;;;;1.90;0.73;;;;;;;6.01;80.23;98365.81;18361999;32;20106;-53
2023/03/27 18:12:32;;;;;;;3.23;1.07;;;;;;;5.88;73.89;98372.13;18361686;32;20050;-55
2023/03/27 18:22:36;;;;;;;6.60;1.10;;;;;;;5.75;73.66;98399.91;18361056;32;20069;-53
2023/03/27 18:32:41;;;;;;;4.47;0.80;;;;;;;5.83;72.10;98412.22;18295683;32;20107;-56
2023/03/27 18:42:45;;;;;;;1.60;0.70;;;;;;;5.63;77.10;98428.50;18296385;32;20070;-56
2023/03/27 18:52:48;;;;;;;2.13;0.80;;;;;;;5.41;83.18;98455.72;18296221;32;20050;-52
2023/03/27 19:02:50;;;;;;;4.33;1.00;;;;;;;5.40;87.89;98459.41;18295601;32;20060;-54
2023/03/27 19:12:54;;;;;;;3.87;1.20;;;;;;;5.36;92.37;98471.63;18295274;32;20122;-53
2023/03/27 19:22:56;;;;;;;2.03;0.80;;;;;;;5.19;96.47;98475.84;18294962;32;20073;-52
2023/03/27 19:32:59;;;;;;;3.03;0.93;;;;;;;4.87;99.55;98457.88;18293015;32;20382;-53
2023/03/27 19:43:02;;;;;;;5.03;1.00;;;;;;;4.58;100.00;98465.41;18292702;32;20088;-54
2023/03/27 19:53:04;;;;;;;4.57;1.00;;;;;;;4.47;100.00;98471.44;18300847;32;20058;-53
2023/03/27 20:03:11;;;;;;;2.07;0.80;;;;;;;4.45;100.00;98488.72;18304606;32;20088;-52
2023/03/27 20:13:16;;;;;;;2.23;0.83;;;;;;;4.36;100.00;98488.16;18304205;32;20054;-54
2023/03/27 20:23:19;;;;;;;4.37;1.17;;;;;;;4.31;100.00;98502.13;18303664;32;20434;-52
2023/03/27 20:33:21;;;;;;;2.03;0.83;;;;;;;4.28;100.00;98518.62;18360464;32;20429;-55
2023/03/27 20:43:25;;;;;;;2.37;1.17;;;;;;;4.24;100.00;98515.53;18366064;32;20065;-55
2023/03/27 20:53:28;;;;;;;5.00;1.50;;;;;;;4.21;100.00;98523.19;18351676;32;20135;-54
2023/03/27 21:03:44;;;;;;;1.80;1.03;;;;;;;4.16;100.00;98531.00;18365050;32;20049;-55
2023/03/27 21:13:47;;;;;;;2.13;0.93;;;;;;;4.06;100.00;98534.09;18364877;32;20057;-55
2023/03/27 21:23:52;;;;;;;3.43;1.20;;;;;;;4.02;100.00;98525.66;18350660;32;20068;-55
2023/03/27 21:33:55;;;;;;;2.10;1.10;;;;;;;4.02;100.00;98530.19;18363504;32;20477;-55
2023/03/27 21:43:57;;;;;;;2.43;1.00;;;;;;;3.98;100.00;98545.00;18363364;32;20054;-56
2023/03/27 21:54:00;;;;;;;3.30;1.10;;;;;;;3.95;100.00;98548.91;18362660;32;20384;-53
2023/03/27 22:04:02;;;;;;;1.33;0.67;;;;;;;3.93;100.00;98560.84;18362294;32;20377;-56
2023/03/27 22:14:05;;;;;;;2.00;0.90;;;;;;;3.95;100.00;98572.16;18360801;32;20438;-54
2023/03/27 22:24:09;;;;;;;2.73;1.07;;;;;;;3.91;100.00;98579.78;18347308;32;20062;-53
2023/03/27 22:34:11;;;;;;;1.70;0.90;;;;;;;3.88;100.00;98590.91;18360321;32;20097;-56
2023/03/27 22:44:14;;;;;;;2.37;0.80;;;;;;;3.82;100.00;98602.41;18360311;32;20061;-56
2023/03/27 22:54:17;;;;;;;2.03;0.83;;;;;;;3.76;100.00;98613.94;18359977;32;20062;-56
2023/03/27 23:04:20;;;;;;;2.63;0.77;;;;;;;3.69;100.00;98613.91;18359383;32;20050;-54
2023/03/27 23:14:22;;;;;;;1.67;0.70;;;;;;;3.60;100.00;98612.44;18358847;32;20096;-54
2023/03/27 23:24:24;;;;;;;2.03;0.90;;;;;;;3.53;100.00;98628.47;18358095;32;20119;-56
2023/03/27 23:34:27;;;;;;;2.40;0.80;;;;;;;3.49;100.00;98627.22;18358233;32;20054;-53
2023/03/27 23:44:29;;;;;;;1.87;1.00;;;;;;;3.46;100.00;98639.13;18357724;32;20076;-57
2023/03/27 23:54:32;;;;;;;2.67;0.83;;;;;;;3.45;100.00;98642.81;18357273;32;20050;-57
